TXKF/BDA METAR and TAF weather

Enter ICAO airport designator
Station Type Date Time Source
TXKF METAR 2019/10/15 08:55 UTC NOAA

TXKF 150855Z 28004KT 9999 FEW020 FEW070 BKN300 24/20 Q1017


Station Type Date Time Source
TXKF Decoded METAR 2019/10/15 08:55 UTC NOAA

Bermuda, Bermuda (TXKF) 32-22N 064-41W
Oct 15, 2019 - 04:55 AM EDT / 2019.10.15 0855 UTC
Wind: from the W (280 degrees) at 5 MPH (4 KT):0
Visibility: greater than 7 mile(s):0
Sky conditions: mostly cloudy
Temperature: 75 F (24 C)
Dew Point: 68 F (20 C)
Relative Humidity: 78%
Pressure (altimeter): 30.03 in. Hg (1017 hPa)
ob: TXKF 150855Z 28004KT 9999 FEW020 FEW070 BKN300 24/20 Q1017
cycle: 9

Station Type Date Time Source
TXKF TAF 2019/10/15 06:55 UTC NOAA

TAF TXKF 150538Z 1506/1606 VRB03KT 9999 VCSH FEW018 SCT080 BKN300

Example: see airport list